sensor_id;sensor_type;location;lat;lon;timestamp;temperature;humidity
15700;DHT22;7950;42.744;23.174;2022-12-05T00:02:03;5.00;99.90
15700;DHT22;7950;42.744;23.174;2022-12-05T00:04:31;5.00;99.90
15700;DHT22;7950;42.744;23.174;2022-12-05T00:06:59;5.00;99.90
15700;DHT22;7950;42.744;23.174;2022-12-05T00:09:28;5.00;99.90
15700;DHT22;7950;42.744;23.174;2022-12-05T00:11:56;5.00;99.90
15700;DHT22;7950;42.744;23.174;2022-12-05T00:14:26;5.00;99.90
15700;DHT22;7950;42.744;23.174;2022-12-05T00:16:54;5.00;99.90
15700;DHT22;7950;42.744;23.174;2022-12-05T00:19:22;5.00;99.90
15700;DHT22;7950;42.744;23.174;2022-12-05T00:21:51;5.00;99.90
15700;DHT22;7950;42.744;23.174;2022-12-05T00:24:19;5.00;99.90
15700;DHT22;7950;42.744;23.174;2022-12-05T00:26:47;5.00;99.90
15700;DHT22;7950;42.744;23.174;2022-12-05T00:29:16;5.00;99.90
15700;DHT22;7950;42.744;23.174;2022-12-05T00:31:46;5.00;99.90
15700;DHT22;7950;42.744;23.174;2022-12-05T00:34:14;5.00;99.90
15700;DHT22;7950;42.744;23.174;2022-12-05T00:36:42;4.90;99.90
15700;DHT22;7950;42.744;23.174;2022-12-05T00:39:12;4.90;99.90
15700;DHT22;7950;42.744;23.174;2022-12-05T00:41:42;4.90;99.90
15700;DHT22;7950;42.744;23.174;2022-12-05T00:44:11;4.90;99.90
15700;DHT22;7950;42.744;23.174;2022-12-05T00:46:42;4.90;99.90
15700;DHT22;7950;42.744;23.174;2022-12-05T00:49:11;4.90;99.90
15700;DHT22;7950;42.744;23.174;2022-12-05T00:51:41;4.90;99.90
15700;DHT22;7950;42.744;23.174;2022-12-05T00:54:12;4.90;99.90
15700;DHT22;7950;42.744;23.174;2022-12-05T00:56:41;4.90;99.90
15700;DHT22;7950;42.744;23.174;2022-12-05T00:59:13;4.90;99.90
15700;DHT22;7950;42.744;23.174;2022-12-05T01:01:44;5.00;99.90
15700;DHT22;7950;42.744;23.174;2022-12-05T01:04:16;5.00;99.90
15700;DHT22;7950;42.744;23.174;2022-12-05T01:06:45;5.00;99.90
15700;DHT22;7950;42.744;23.174;2022-12-05T01:09:15;5.00;99.90
15700;DHT22;7950;42.744;23.174;2022-12-05T01:11:44;5.00;99.90
15700;DHT22;7950;42.744;23.174;2022-12-05T01:14:14;4.90;99.90
15700;DHT22;7950;42.744;23.174;2022-12-05T01:16:44;4.90;99.90
15700;DHT22;7950;42.744;23.174;2022-12-05T01:19:51;4.90;99.90
15700;DHT22;7950;42.744;23.174;2022-12-05T01:22:19;4.90;99.90
15700;DHT22;7950;42.744;23.174;2022-12-05T01:24:47;4.80;99.90
15700;DHT22;7950;42.744;23.174;2022-12-05T01:27:16;4.80;99.90
15700;DHT22;7950;42.744;23.174;2022-12-05T01:29:44;4.80;99.90
15700;DHT22;7950;42.744;23.174;2022-12-05T01:32:12;4.80;99.90
15700;DHT22;7950;42.744;23.174;2022-12-05T01:34:40;4.80;99.90
15700;DHT22;7950;42.744;23.174;2022-12-05T01:37:10;4.80;99.90
15700;DHT22;7950;42.744;23.174;2022-12-05T01:39:38;4.90;99.90
15700;DHT22;7950;42.744;23.174;2022-12-05T01:42:07;4.90;99.90
15700;DHT22;7950;42.744;23.174;2022-12-05T01:45:02;4.90;99.90
15700;DHT22;7950;42.744;23.174;2022-12-05T01:47:34;4.90;99.90
15700;DHT22;7950;42.744;23.174;2022-12-05T01:50:05;4.90;99.90
15700;DHT22;7950;42.744;23.174;2022-12-05T01:52:35;4.90;99.90
15700;DHT22;7950;42.744;23.174;2022-12-05T01:55:07;4.90;99.90
15700;DHT22;7950;42.744;23.174;2022-12-05T01:57:37;4.90;99.90
15700;DHT22;7950;42.744;23.174;2022-12-05T02:00:10;4.90;99.90
15700;DHT22;7950;42.744;23.174;2022-12-05T02:02:42;4.90;99.90
15700;DHT22;7950;42.744;23.174;2022-12-05T02:05:15;4.80;99.90
15700;DHT22;7950;42.744;23.174;2022-12-05T02:07:46;4.80;99.90
15700;DHT22;7950;42.744;23.174;2022-12-05T02:10:15;4.80;99.90
15700;DHT22;7950;42.744;23.174;2022-12-05T02:12:44;4.80;99.90
15700;DHT22;7950;42.744;23.174;2022-12-05T02:15:24;4.80;99.90
15700;DHT22;7950;42.744;23.174;2022-12-05T02:18:08;4.80;99.90
15700;DHT22;7950;42.744;23.174;2022-12-05T02:20:48;4.80;99.90
15700;DHT22;7950;42.744;23.174;2022-12-05T02:26:55;4.70;99.90
15700;DHT22;7950;42.744;23.174;2022-12-05T02:29:55;4.70;99.90
15700;DHT22;7950;42.744;23.174;2022-12-05T02:32:37;4.70;99.90
15700;DHT22;7950;42.744;23.174;2022-12-05T02:35:19;4.80;99.90
15700;DHT22;7950;42.744;23.174;2022-12-05T02:37:55;4.70;99.90
15700;DHT22;7950;42.744;23.174;2022-12-05T02:40:31;4.70;99.90
15700;DHT22;7950;42.744;23.174;2022-12-05T02:43:06;4.70;99.90
15700;DHT22;7950;42.744;23.174;2022-12-05T02:45:41;4.80;99.90
15700;DHT22;7950;42.744;23.174;2022-12-05T02:48:11;4.80;99.90
15700;DHT22;7950;42.744;23.174;2022-12-05T02:50:42;4.80;99.90
15700;DHT22;7950;42.744;23.174;2022-12-05T02:53:12;4.80;99.90
15700;DHT22;7950;42.744;23.174;2022-12-05T02:55:43;4.80;99.90
15700;DHT22;7950;42.744;23.174;2022-12-05T02:58:16;4.80;99.90
15700;DHT22;7950;42.744;23.174;2022-12-05T03:00:49;4.80;99.90
15700;DHT22;7950;42.744;23.174;2022-12-05T03:03:19;4.80;99.90
15700;DHT22;7950;42.744;23.174;2022-12-05T03:05:53;4.80;99.90
15700;DHT22;7950;42.744;23.174;2022-12-05T03:08:25;4.80;99.90
15700;DHT22;7950;42.744;23.174;2022-12-05T03:10:55;4.90;99.90
15700;DHT22;7950;42.744;23.174;2022-12-05T03:13:50;4.90;99.90
15700;DHT22;7950;42.744;23.174;2022-12-05T03:16:24;4.90;99.90
15700;DHT22;7950;42.744;23.174;2022-12-05T03:18:57;4.80;99.90
15700;DHT22;7950;42.744;23.174;2022-12-05T03:21:30;4.80;99.90
15700;DHT22;7950;42.744;23.174;2022-12-05T03:24:03;4.80;99.90
15700;DHT22;7950;42.744;23.174;2022-12-05T03:26:48;4.80;99.90
15700;DHT22;7950;42.744;23.174;2022-12-05T03:29:23;4.80;99.90
15700;DHT22;7950;42.744;23.174;2022-12-05T03:32:20;4.80;99.90
15700;DHT22;7950;42.744;23.174;2022-12-05T03:35:01;4.80;99.90
15700;DHT22;7950;42.744;23.174;2022-12-05T03:37:45;4.90;99.90
15700;DHT22;7950;42.744;23.174;2022-12-05T03:40:23;4.90;99.90
15700;DHT22;7950;42.744;23.174;2022-12-05T03:42:56;4.90;99.90
15700;DHT22;7950;42.744;23.174;2022-12-05T03:45:31;4.80;99.90
15700;DHT22;7950;42.744;23.174;2022-12-05T03:48:09;4.90;99.90
15700;DHT22;7950;42.744;23.174;2022-12-05T03:50:40;4.90;99.90
15700;DHT22;7950;42.744;23.174;2022-12-05T03:53:14;4.90;99.90
15700;DHT22;7950;42.744;23.174;2022-12-05T03:55:53;4.90;99.90
15700;DHT22;7950;42.744;23.174;2022-12-05T03:58:26;4.90;99.90
15700;DHT22;7950;42.744;23.174;2022-12-05T04:00:56;4.90;99.90
15700;DHT22;7950;42.744;23.174;2022-12-05T04:03:31;4.90;99.90
15700;DHT22;7950;42.744;23.174;2022-12-05T04:06:11;4.90;99.90
15700;DHT22;7950;42.744;23.174;2022-12-05T04:08:49;4.90;99.90
15700;DHT22;7950;42.744;23.174;2022-12-05T04:11:21;4.90;99.90
15700;DHT22;7950;42.744;23.174;2022-12-05T04:13:52;4.90;99.90
15700;DHT22;7950;42.744;23.174;2022-12-05T04:16:24;4.90;99.90
15700;DHT22;7950;42.744;23.174;2022-12-05T04:19:16;4.90;99.90
15700;DHT22;7950;42.744;23.174;2022-12-05T04:22:11;4.90;99.90
15700;DHT22;7950;42.744;23.174;2022-12-05T04:24:38;4.90;99.90
15700;DHT22;7950;42.744;23.174;2022-12-05T04:27:28;4.90;99.90
15700;DHT22;7950;42.744;23.174;2022-12-05T04:30:03;4.90;99.90
15700;DHT22;7950;42.744;23.174;2022-12-05T04:32:37;4.90;99.90
15700;DHT22;7950;42.744;23.174;2022-12-05T04:35:12;5.00;99.90
15700;DHT22;7950;42.744;23.174;2022-12-05T04:37:44;5.00;99.90
15700;DHT22;7950;42.744;23.174;2022-12-05T04:40:19;5.00;99.90
15700;DHT22;7950;42.744;23.174;2022-12-05T04:42:50;5.00;99.90
15700;DHT22;7950;42.744;23.174;2022-12-05T04:45:21;5.10;99.90
15700;DHT22;7950;42.744;23.174;2022-12-05T04:47:55;5.10;99.90
15700;DHT22;7950;42.744;23.174;2022-12-05T04:50:28;5.10;99.90
15700;DHT22;7950;42.744;23.174;2022-12-05T04:52:59;5.10;99.90
15700;DHT22;7950;42.744;23.174;2022-12-05T04:55:31;5.10;99.90
15700;DHT22;7950;42.744;23.174;2022-12-05T04:58:05;5.10;99.90
15700;DHT22;7950;42.744;23.174;2022-12-05T05:00:56;5.10;99.90
15700;DHT22;7950;42.744;23.174;2022-12-05T05:03:29;5.10;99.90
15700;DHT22;7950;42.744;23.174;2022-12-05T05:05:59;5.20;99.90
15700;DHT22;7950;42.744;23.174;2022-12-05T05:08:29;5.20;99.90
15700;DHT22;7950;42.744;23.174;2022-12-05T05:11:04;5.20;99.90
15700;DHT22;7950;42.744;23.174;2022-12-05T05:13:34;5.20;99.90
15700;DHT22;7950;42.744;23.174;2022-12-05T05:16:03;5.20;99.90
15700;DHT22;7950;42.744;23.174;2022-12-05T05:18:31;5.20;99.90
15700;DHT22;7950;42.744;23.174;2022-12-05T05:21:01;5.20;99.90
15700;DHT22;7950;42.744;23.174;2022-12-05T05:23:29;5.30;99.90
15700;DHT22;7950;42.744;23.174;2022-12-05T05:25:57;5.30;99.90
15700;DHT22;7950;42.744;23.174;2022-12-05T05:28:25;5.20;99.90
15700;DHT22;7950;42.744;23.174;2022-12-05T05:30:53;5.30;99.90
15700;DHT22;7950;42.744;23.174;2022-12-05T05:33:22;5.20;99.90
15700;DHT22;7950;42.744;23.174;2022-12-05T05:35:50;5.30;99.90
15700;DHT22;7950;42.744;23.174;2022-12-05T05:38:20;5.20;99.90
15700;DHT22;7950;42.744;23.174;2022-12-05T05:40:48;5.20;99.90
15700;DHT22;7950;42.744;23.174;2022-12-05T05:43:16;5.20;99.90
15700;DHT22;7950;42.744;23.174;2022-12-05T05:45:44;5.20;99.90
15700;DHT22;7950;42.744;23.174;2022-12-05T05:48:13;5.30;99.90
15700;DHT22;7950;42.744;23.174;2022-12-05T05:50:41;5.30;99.90
15700;DHT22;7950;42.744;23.174;2022-12-05T05:53:09;5.30;99.90
15700;DHT22;7950;42.744;23.174;2022-12-05T05:55:40;5.30;99.90
15700;DHT22;7950;42.744;23.174;2022-12-05T05:58:08;5.30;99.90
15700;DHT22;7950;42.744;23.174;2022-12-05T06:00:36;5.30;99.90
15700;DHT22;7950;42.744;23.174;2022-12-05T06:03:05;5.30;99.90
15700;DHT22;7950;42.744;23.174;2022-12-05T06:05:33;5.30;99.90
15700;DHT22;7950;42.744;23.174;2022-12-05T06:08:02;5.30;99.90
15700;DHT22;7950;42.744;23.174;2022-12-05T06:10:31;5.20;99.90
15700;DHT22;7950;42.744;23.174;2022-12-05T06:13:00;5.20;99.90
15700;DHT22;7950;42.744;23.174;2022-12-05T06:15:29;5.20;99.90
15700;DHT22;7950;42.744;23.174;2022-12-05T06:17:57;5.20;99.90
15700;DHT22;7950;42.744;23.174;2022-12-05T06:20:25;5.20;99.90
15700;DHT22;7950;42.744;23.174;2022-12-05T06:22:53;5.20;99.90
15700;DHT22;7950;42.744;23.174;2022-12-05T06:25:22;5.30;99.90
15700;DHT22;7950;42.744;23.174;2022-12-05T06:27:50;5.30;99.90
15700;DHT22;7950;42.744;23.174;2022-12-05T06:30:23;5.30;99.90
15700;DHT22;7950;42.744;23.174;2022-12-05T06:32:52;5.30;99.90
15700;DHT22;7950;42.744;23.174;2022-12-05T06:35:20;5.30;99.90
15700;DHT22;7950;42.744;23.174;2022-12-05T06:37:48;5.30;99.90
15700;DHT22;7950;42.744;23.174;2022-12-05T06:40:16;5.30;99.90
15700;DHT22;7950;42.744;23.174;2022-12-05T06:42:45;5.30;99.90
15700;DHT22;7950;42.744;23.174;2022-12-05T06:45:13;5.30;99.90
15700;DHT22;7950;42.744;23.174;2022-12-05T06:47:43;5.30;99.90
15700;DHT22;7950;42.744;23.174;2022-12-05T06:50:11;5.40;99.90
15700;DHT22;7950;42.744;23.174;2022-12-05T06:52:39;5.40;99.90
15700;DHT22;7950;42.744;23.174;2022-12-05T06:55:08;5.40;99.90
15700;DHT22;7950;42.744;23.174;2022-12-05T06:57:37;5.40;99.90
15700;DHT22;7950;42.744;23.174;2022-12-05T07:00:06;5.50;99.90
15700;DHT22;7950;42.744;23.174;2022-12-05T07:03:17;5.40;99.90
15700;DHT22;7950;42.744;23.174;2022-12-05T07:06:11;5.50;99.90
15700;DHT22;7950;42.744;23.174;2022-12-05T07:08:39;5.50;99.90
15700;DHT22;7950;42.744;23.174;2022-12-05T07:11:08;5.50;99.90
15700;DHT22;7950;42.744;23.174;2022-12-05T07:13:36;5.50;99.90
15700;DHT22;7950;42.744;23.174;2022-12-05T07:16:05;5.50;99.90
15700;DHT22;7950;42.744;23.174;2022-12-05T07:18:35;5.50;99.90
15700;DHT22;7950;42.744;23.174;2022-12-05T07:21:07;5.60;99.90
15700;DHT22;7950;42.744;23.174;2022-12-05T07:23:38;5.50;99.90
15700;DHT22;7950;42.744;23.174;2022-12-05T07:26:08;5.60;99.90
15700;DHT22;7950;42.744;23.174;2022-12-05T07:28:37;5.60;99.90
15700;DHT22;7950;42.744;23.174;2022-12-05T07:31:08;5.60;99.90
15700;DHT22;7950;42.744;23.174;2022-12-05T07:33:38;5.60;99.90
15700;DHT22;7950;42.744;23.174;2022-12-05T07:36:08;5.60;99.90
15700;DHT22;7950;42.744;23.174;2022-12-05T07:38:37;5.60;99.90
15700;DHT22;7950;42.744;23.174;2022-12-05T07:41:06;5.60;99.90
15700;DHT22;7950;42.744;23.174;2022-12-05T07:43:39;5.60;99.90
15700;DHT22;7950;42.744;23.174;2022-12-05T07:46:08;5.60;99.90
15700;DHT22;7950;42.744;23.174;2022-12-05T07:48:40;5.60;99.90
15700;DHT22;7950;42.744;23.174;2022-12-05T07:51:08;5.60;99.90
15700;DHT22;7950;42.744;23.174;2022-12-05T07:53:37;5.60;99.90
15700;DHT22;7950;42.744;23.174;2022-12-05T07:56:08;5.60;99.90
15700;DHT22;7950;42.744;23.174;2022-12-05T07:58:37;5.60;99.90
15700;DHT22;7950;42.744;23.174;2022-12-05T08:01:06;5.60;99.90
15700;DHT22;7950;42.744;23.174;2022-12-05T08:03:35;5.70;99.90
15700;DHT22;7950;42.744;23.174;2022-12-05T08:06:08;5.70;99.90
15700;DHT22;7950;42.744;23.174;2022-12-05T08:08:36;5.70;99.90
15700;DHT22;7950;42.744;23.174;2022-12-05T08:22:44;5.70;99.90
15700;DHT22;7950;42.744;23.174;2022-12-05T08:25:13;6.10;99.90
15700;DHT22;7950;42.744;23.174;2022-12-05T08:27:41;6.10;99.90
15700;DHT22;7950;42.744;23.174;2022-12-05T08:30:09;6.10;99.90
15700;DHT22;7950;42.744;23.174;2022-12-05T08:32:38;6.10;99.90
15700;DHT22;7950;42.744;23.174;2022-12-05T08:35:07;6.10;99.90
15700;DHT22;7950;42.744;23.174;2022-12-05T08:37:35;6.10;99.90
15700;DHT22;7950;42.744;23.174;2022-12-05T08:40:06;6.10;99.90
15700;DHT22;7950;42.744;23.174;2022-12-05T08:42:34;6.00;99.90
15700;DHT22;7950;42.744;23.174;2022-12-05T08:45:03;6.00;99.90
15700;DHT22;7950;42.744;23.174;2022-12-05T08:47:32;6.00;99.90
15700;DHT22;7950;42.744;23.174;2022-12-05T08:50:00;5.90;99.90
15700;DHT22;7950;42.744;23.174;2022-12-05T08:52:29;5.90;99.90
15700;DHT22;7950;42.744;23.174;2022-12-05T08:54:57;5.90;99.90
15700;DHT22;7950;42.744;23.174;2022-12-05T08:57:27;5.80;99.90
15700;DHT22;7950;42.744;23.174;2022-12-05T08:59:55;5.80;99.90
15700;DHT22;7950;42.744;23.174;2022-12-05T09:02:24;5.80;99.90
15700;DHT22;7950;42.744;23.174;2022-12-05T09:04:52;5.80;99.90
15700;DHT22;7950;42.744;23.174;2022-12-05T09:07:25;5.80;99.90
15700;DHT22;7950;42.744;23.174;2022-12-05T09:09:53;5.90;99.90
15700;DHT22;7950;42.744;23.174;2022-12-05T09:12:21;5.90;99.90
15700;DHT22;7950;42.744;23.174;2022-12-05T09:14:51;5.80;99.90
15700;DHT22;7950;42.744;23.174;2022-12-05T09:17:19;5.90;99.90
15700;DHT22;7950;42.744;23.174;2022-12-05T09:19:50;5.90;99.90
15700;DHT22;7950;42.744;23.174;2022-12-05T09:22:18;5.90;99.90
15700;DHT22;7950;42.744;23.174;2022-12-05T09:24:50;5.90;99.90
15700;DHT22;7950;42.744;23.174;2022-12-05T09:27:18;5.90;99.90
15700;DHT22;7950;42.744;23.174;2022-12-05T09:29:46;5.90;99.90
15700;DHT22;7950;42.744;23.174;2022-12-05T09:32:16;5.90;99.90
15700;DHT22;7950;42.744;23.174;2022-12-05T09:34:44;5.90;99.90
15700;DHT22;7950;42.744;23.174;2022-12-05T09:37:13;6.00;99.90
15700;DHT22;7950;42.744;23.174;2022-12-05T09:40:01;6.00;99.90
15700;DHT22;7950;42.744;23.174;2022-12-05T09:42:37;6.00;99.90
15700;DHT22;7950;42.744;23.174;2022-12-05T09:45:17;6.00;99.90
15700;DHT22;7950;42.744;23.174;2022-12-05T09:47:55;6.10;99.90
15700;DHT22;7950;42.744;23.174;2022-12-05T09:50:25;6.10;99.90
15700;DHT22;7950;42.744;23.174;2022-12-05T09:53:01;6.10;99.90
15700;DHT22;7950;42.744;23.174;2022-12-05T09:55:38;6.20;99.90
15700;DHT22;7950;42.744;23.174;2022-12-05T09:58:19;6.20;99.90
15700;DHT22;7950;42.744;23.174;2022-12-05T10:00:49;6.20;99.90
15700;DHT22;7950;42.744;23.174;2022-12-05T10:03:24;6.20;99.90
15700;DHT22;7950;42.744;23.174;2022-12-05T10:06:05;6.20;99.90
15700;DHT22;7950;42.744;23.174;2022-12-05T10:08:46;6.30;99.90
15700;DHT22;7950;42.744;23.174;2022-12-05T10:11:22;6.40;99.90
15700;DHT22;7950;42.744;23.174;2022-12-05T10:14:00;6.40;99.90
15700;DHT22;7950;42.744;23.174;2022-12-05T10:16:32;6.40;99.90
15700;DHT22;7950;42.744;23.174;2022-12-05T10:19:09;6.30;99.90
15700;DHT22;7950;42.744;23.174;2022-12-05T10:21:43;6.40;99.90
15700;DHT22;7950;42.744;23.174;2022-12-05T10:36:34;6.50;99.90
15700;DHT22;7950;42.744;23.174;2022-12-05T10:39:02;6.70;99.90
15700;DHT22;7950;42.744;23.174;2022-12-05T10:41:37;6.70;99.90
15700;DHT22;7950;42.744;23.174;2022-12-05T10:44:06;6.70;99.90
15700;DHT22;7950;42.744;23.174;2022-12-05T10:46:35;6.70;99.90
15700;DHT22;7950;42.744;23.174;2022-12-05T10:49:08;6.70;99.90
15700;DHT22;7950;42.744;23.174;2022-12-05T10:51:39;6.70;99.90
15700;DHT22;7950;42.744;23.174;2022-12-05T10:54:15;6.60;99.90
15700;DHT22;7950;42.744;23.174;2022-12-05T10:56:45;6.60;99.90
15700;DHT22;7950;42.744;23.174;2022-12-05T10:59:16;6.70;99.90
15700;DHT22;7950;42.744;23.174;2022-12-05T11:01:48;6.60;99.90
15700;DHT22;7950;42.744;23.174;2022-12-05T11:04:23;6.60;99.90
15700;DHT22;7950;42.744;23.174;2022-12-05T11:07:00;6.60;99.90
15700;DHT22;7950;42.744;23.174;2022-12-05T11:09:31;6.60;99.90
15700;DHT22;7950;42.744;23.174;2022-12-05T11:12:05;6.60;99.90
15700;DHT22;7950;42.744;23.174;2022-12-05T11:14:33;6.60;99.90
15700;DHT22;7950;42.744;23.174;2022-12-05T11:17:04;6.60;99.90
15700;DHT22;7950;42.744;23.174;2022-12-05T11:19:34;6.70;99.90
15700;DHT22;7950;42.744;23.174;2022-12-05T11:22:05;6.70;99.90
15700;DHT22;7950;42.744;23.174;2022-12-05T11:24:36;6.70;99.90
15700;DHT22;7950;42.744;23.174;2022-12-05T11:27:20;6.70;99.90
15700;DHT22;7950;42.744;23.174;2022-12-05T11:29:58;6.70;99.90
15700;DHT22;7950;42.744;23.174;2022-12-05T11:32:28;6.80;99.90
15700;DHT22;7950;42.744;23.174;2022-12-05T11:35:07;6.80;99.90
15700;DHT22;7950;42.744;23.174;2022-12-05T11:37:42;6.70;99.90
15700;DHT22;7950;42.744;23.174;2022-12-05T11:40:14;6.70;99.90
15700;DHT22;7950;42.744;23.174;2022-12-05T11:43:00;6.80;99.90
15700;DHT22;7950;42.744;23.174;2022-12-05T11:45:53;6.70;99.90
15700;DHT22;7950;42.744;23.174;2022-12-05T11:48:54;6.70;99.90
15700;DHT22;7950;42.744;23.174;2022-12-05T11:51:44;6.60;99.90
15700;DHT22;7950;42.744;23.174;2022-12-05T11:54:53;6.60;99.90
15700;DHT22;7950;42.744;23.174;2022-12-05T11:57:48;6.60;99.90
15700;DHT22;7950;42.744;23.174;2022-12-05T12:00:23;6.60;99.90
15700;DHT22;7950;42.744;23.174;2022-12-05T12:03:13;6.70;99.90
15700;DHT22;7950;42.744;23.174;2022-12-05T12:05:52;6.70;99.90
15700;DHT22;7950;42.744;23.174;2022-12-05T12:08:25;6.70;99.90
15700;DHT22;7950;42.744;23.174;2022-12-05T12:11:04;6.70;99.90
15700;DHT22;7950;42.744;23.174;2022-12-05T12:13:45;6.70;99.90
15700;DHT22;7950;42.744;23.174;2022-12-05T12:16:20;6.70;99.90
15700;DHT22;7950;42.744;23.174;2022-12-05T12:19:09;6.70;99.90
15700;DHT22;7950;42.744;23.174;2022-12-05T12:21:50;6.80;99.90
15700;DHT22;7950;42.744;23.174;2022-12-05T12:24:29;6.80;99.90
15700;DHT22;7950;42.744;23.174;2022-12-05T12:27:29;6.70;99.90
15700;DHT22;7950;42.744;23.174;2022-12-05T12:30:04;6.70;99.90
15700;DHT22;7950;42.744;23.174;2022-12-05T12:32:39;6.70;99.90
15700;DHT22;7950;42.744;23.174;2022-12-05T12:35:31;6.60;99.90
15700;DHT22;7950;42.744;23.174;2022-12-05T12:38:21;6.60;99.90
15700;DHT22;7950;42.744;23.174;2022-12-05T12:40:53;6.70;99.90
15700;DHT22;7950;42.744;23.174;2022-12-05T12:43:41;6.70;99.90
15700;DHT22;7950;42.744;23.174;2022-12-05T12:46:32;6.60;99.90
15700;DHT22;7950;42.744;23.174;2022-12-05T12:49:21;6.60;99.90
15700;DHT22;7950;42.744;23.174;2022-12-05T12:51:56;6.60;99.90
15700;DHT22;7950;42.744;23.174;2022-12-05T12:57:43;6.50;99.90
15700;DHT22;7950;42.744;23.174;2022-12-05T13:00:27;6.50;99.90
15700;DHT22;7950;42.744;23.174;2022-12-05T13:03:02;6.40;99.90
15700;DHT22;7950;42.744;23.174;2022-12-05T13:05:35;6.40;99.90
15700;DHT22;7950;42.744;23.174;2022-12-05T13:08:11;6.40;99.90
15700;DHT22;7950;42.744;23.174;2022-12-05T13:10:43;6.40;99.90
15700;DHT22;7950;42.744;23.174;2022-12-05T13:13:15;6.40;99.90
15700;DHT22;7950;42.744;23.174;2022-12-05T13:16:13;6.40;99.90
15700;DHT22;7950;42.744;23.174;2022-12-05T13:18:45;6.40;99.90
15700;DHT22;7950;42.744;23.174;2022-12-05T13:21:13;6.30;99.90
15700;DHT22;7950;42.744;23.174;2022-12-05T13:23:45;6.30;99.90
15700;DHT22;7950;42.744;23.174;2022-12-05T13:26:14;6.40;99.90
15700;DHT22;7950;42.744;23.174;2022-12-05T13:28:49;6.40;99.90
15700;DHT22;7950;42.744;23.174;2022-12-05T13:31:34;6.40;99.90
15700;DHT22;7950;42.744;23.174;2022-12-05T13:34:02;6.40;99.90
15700;DHT22;7950;42.744;23.174;2022-12-05T13:36:38;6.40;99.90
15700;DHT22;7950;42.744;23.174;2022-12-05T13:39:24;6.30;99.90
15700;DHT22;7950;42.744;23.174;2022-12-05T13:42:20;6.40;99.90
15700;DHT22;7950;42.744;23.174;2022-12-05T13:44:53;6.40;99.90
15700;DHT22;7950;42.744;23.174;2022-12-05T13:47:49;6.40;99.90
15700;DHT22;7950;42.744;23.174;2022-12-05T13:50:27;6.40;99.90
15700;DHT22;7950;42.744;23.174;2022-12-05T13:53:26;6.40;99.90
15700;DHT22;7950;42.744;23.174;2022-12-05T13:55:58;6.40;99.90
15700;DHT22;7950;42.744;23.174;2022-12-05T13:58:41;6.40;99.90
15700;DHT22;7950;42.744;23.174;2022-12-05T14:01:44;6.40;99.90
15700;DHT22;7950;42.744;23.174;2022-12-05T14:04:47;6.30;99.90
15700;DHT22;7950;42.744;23.174;2022-12-05T14:07:36;6.30;99.90
15700;DHT22;7950;42.744;23.174;2022-12-05T14:10:07;6.30;99.90
15700;DHT22;7950;42.744;23.174;2022-12-05T14:12:53;6.30;99.90
15700;DHT22;7950;42.744;23.174;2022-12-05T14:15:30;6.30;99.90
15700;DHT22;7950;42.744;23.174;2022-12-05T14:18:03;6.20;99.90
15700;DHT22;7950;42.744;23.174;2022-12-05T14:20:47;6.30;99.90
15700;DHT22;7950;42.744;23.174;2022-12-05T14:29:35;6.20;99.90
15700;DHT22;7950;42.744;23.174;2022-12-05T14:32:14;6.10;99.90
15700;DHT22;7950;42.744;23.174;2022-12-05T14:34:56;6.10;99.90
15700;DHT22;7950;42.744;23.174;2022-12-05T14:37:31;6.10;99.90
15700;DHT22;7950;42.744;23.174;2022-12-05T14:40:02;6.20;99.90
15700;DHT22;7950;42.744;23.174;2022-12-05T14:42:36;6.10;99.90
15700;DHT22;7950;42.744;23.174;2022-12-05T14:45:23;6.10;99.90
15700;DHT22;7950;42.744;23.174;2022-12-05T14:47:56;6.10;99.90
15700;DHT22;7950;42.744;23.174;2022-12-05T14:50:39;6.00;99.90
15700;DHT22;7950;42.744;23.174;2022-12-05T14:53:23;6.10;99.90
15700;DHT22;7950;42.744;23.174;2022-12-05T14:55:55;6.00;99.90
15700;DHT22;7950;42.744;23.174;2022-12-05T14:58:31;6.00;99.90
15700;DHT22;7950;42.744;23.174;2022-12-05T15:01:02;6.00;99.90
15700;DHT22;7950;42.744;23.174;2022-12-05T15:03:40;6.00;99.90
15700;DHT22;7950;42.744;23.174;2022-12-05T15:06:13;6.10;99.90
15700;DHT22;7950;42.744;23.174;2022-12-05T15:08:49;6.00;99.90
15700;DHT22;7950;42.744;23.174;2022-12-05T15:11:23;6.00;99.90
15700;DHT22;7950;42.744;23.174;2022-12-05T15:13:59;6.00;99.90
15700;DHT22;7950;42.744;23.174;2022-12-05T15:16:29;6.00;99.90
15700;DHT22;7950;42.744;23.174;2022-12-05T15:19:02;6.00;99.90
15700;DHT22;7950;42.744;23.174;2022-12-05T15:21:36;6.00;99.90
15700;DHT22;7950;42.744;23.174;2022-12-05T15:24:13;6.00;99.90
15700;DHT22;7950;42.744;23.174;2022-12-05T15:26:51;6.00;99.90
15700;DHT22;7950;42.744;23.174;2022-12-05T15:29:24;6.00;99.90
15700;DHT22;7950;42.744;23.174;2022-12-05T15:31:55;6.00;99.90
15700;DHT22;7950;42.744;23.174;2022-12-05T15:34:27;6.00;99.90
15700;DHT22;7950;42.744;23.174;2022-12-05T15:36:59;5.90;99.90
15700;DHT22;7950;42.744;23.174;2022-12-05T15:39:50;5.90;99.90
15700;DHT22;7950;42.744;23.174;2022-12-05T15:42:18;5.90;99.90
15700;DHT22;7950;42.744;23.174;2022-12-05T15:45:10;5.90;99.90
15700;DHT22;7950;42.744;23.174;2022-12-05T15:47:42;5.90;99.90
15700;DHT22;7950;42.744;23.174;2022-12-05T15:50:12;5.90;99.90
15700;DHT22;7950;42.744;23.174;2022-12-05T15:52:43;5.90;99.90
15700;DHT22;7950;42.744;23.174;2022-12-05T15:55:18;5.90;99.90
15700;DHT22;7950;42.744;23.174;2022-12-05T15:58:14;5.90;99.90
15700;DHT22;7950;42.744;23.174;2022-12-05T16:00:49;5.90;99.90
15700;DHT22;7950;42.744;23.174;2022-12-05T16:03:22;5.90;99.90
15700;DHT22;7950;42.744;23.174;2022-12-05T16:05:55;5.90;99.90
15700;DHT22;7950;42.744;23.174;2022-12-05T16:08:25;5.90;99.90
15700;DHT22;7950;42.744;23.174;2022-12-05T16:11:06;6.00;99.90
15700;DHT22;7950;42.744;23.174;2022-12-05T16:13:41;6.00;99.90
15700;DHT22;7950;42.744;23.174;2022-12-05T16:16:15;6.00;99.90
15700;DHT22;7950;42.744;23.174;2022-12-05T16:18:49;6.00;99.90
15700;DHT22;7950;42.744;23.174;2022-12-05T16:21:28;6.00;99.90
15700;DHT22;7950;42.744;23.174;2022-12-05T16:24:06;6.00;99.90
15700;DHT22;7950;42.744;23.174;2022-12-05T16:26:38;6.00;99.90
15700;DHT22;7950;42.744;23.174;2022-12-05T16:29:25;6.00;99.90
15700;DHT22;7950;42.744;23.174;2022-12-05T16:31:56;6.00;99.90
15700;DHT22;7950;42.744;23.174;2022-12-05T16:34:26;6.00;99.90
15700;DHT22;7950;42.744;23.174;2022-12-05T16:36:55;6.00;99.90
15700;DHT22;7950;42.744;23.174;2022-12-05T16:39:25;6.00;99.90
15700;DHT22;7950;42.744;23.174;2022-12-05T16:41:55;6.00;99.90
15700;DHT22;7950;42.744;23.174;2022-12-05T16:44:53;6.00;99.90
15700;DHT22;7950;42.744;23.174;2022-12-05T16:48:02;6.00;99.90
15700;DHT22;7950;42.744;23.174;2022-12-05T16:50:34;6.00;99.90
15700;DHT22;7950;42.744;23.174;2022-12-05T16:53:16;6.10;99.90
15700;DHT22;7950;42.744;23.174;2022-12-05T16:55:45;6.10;99.90
15700;DHT22;7950;42.744;23.174;2022-12-05T16:58:20;6.10;99.90
15700;DHT22;7950;42.744;23.174;2022-12-05T17:00:49;6.10;99.90
15700;DHT22;7950;42.744;23.174;2022-12-05T17:03:18;6.00;99.90
15700;DHT22;7950;42.744;23.174;2022-12-05T17:06:02;6.00;99.90
15700;DHT22;7950;42.744;23.174;2022-12-05T17:08:31;6.00;99.90